Time;durP1;ratioP1;P1;durP2;ratioP2;P2;SDS_P1;SDS_P2;PMS_P1;PMS_P2;Temp;Humidity;BMP_temperature;BMP_pressure;BME280_temperature;BME280_humidity;BME280_pressure;Samples;Min_cycle;Max_cycle;Signal;HPM_P1;HPM_P2
2022/10/26 00:02:05;;;;;;;13.03;6.77;;;;;;;;;;5021524;28;20299;-74
2022/10/26 00:04:30;;;;;;;10.13;6.80;;;;;;;;;;5020624;28;20292;-73
2022/10/26 00:06:55;;;;;;;9.80;6.90;;;;;;;;;;5020032;28;20276;-74
2022/10/26 00:09:21;;;;;;;9.70;6.97;;;;;;;;;;5020204;28;20295;-74
2022/10/26 00:11:46;;;;;;;18.30;6.30;;;;;;;;;;5002766;28;20078;-74
2022/10/26 00:14:11;;;;;;;11.87;6.37;;;;;;;;;;5019957;28;20268;-69
2022/10/26 00:16:36;;;;;;;11.90;6.77;;;;;;;;;;5016778;28;20283;-74
2022/10/26 00:19:01;;;;;;;9.40;6.05;;;;;;;;;;4989210;28;20279;-74
2022/10/26 00:21:27;;;;;;;12.30;6.40;;;;;;;;;;5018503;28;20026;-73
2022/10/26 00:23:52;;;;;;;13.15;6.45;;;;;;;;;;5018056;28;20878;-74
2022/10/26 00:26:17;;;;;;;11.93;6.33;;;;;;;;;;5019522;28;20045;-74
2022/10/26 00:28:42;;;;;;;10.23;7.20;;;;;;;;;;5019749;28;20370;-73
2022/10/26 00:31:11;;;;;;;15.32;7.65;;;;;;;;;;5019931;28;20032;-75
2022/10/26 00:33:36;;;;;;;22.75;7.53;;;;;;;;;;5003591;28;20120;-75
2022/10/26 00:36:02;;;;;;;9.50;6.57;;;;;;;;;;5021287;28;20041;-75
2022/10/26 00:38:27;;;;;;;11.13;7.85;;;;;;;;;;4994826;28;20314;-75
2022/10/26 00:40:53;;;;;;;7.93;6.05;;;;;;;;;;5008906;28;20095;-75
2022/10/26 00:43:21;;;;;;;11.73;6.63;;;;;;;;;;5020157;28;20029;-74
2022/10/26 00:45:48;;;;;;;10.38;6.53;;;;;;;;;;5018933;28;20268;-75
2022/10/26 00:48:24;;;;;;;11.45;6.18;;;;;;;;;;5017461;28;20606;-75
2022/10/26 00:50:51;;;;;;;19.23;7.53;;;;;;;;;;5018630;28;20021;-75
2022/10/26 00:53:17;;;;;;;10.25;6.43;;;;;;;;;;5013182;28;20539;-75
2022/10/26 00:55:44;;;;;;;14.02;7.18;;;;;;;;;;5008158;28;20075;-74
2022/10/26 00:58:10;;;;;;;12.25;6.57;;;;;;;;;;5017882;28;20025;-74
2022/10/26 01:00:36;;;;;;;8.77;6.30;;;;;;;;;;5019912;28;20118;-74
2022/10/26 01:03:05;;;;;;;15.05;7.13;;;;;;;;;;5020933;28;20033;-74
2022/10/26 01:05:31;;;;;;;11.95;6.93;;;;;;;;;;5007719;28;20025;-74
2022/10/26 01:07:56;;;;;;;15.85;6.53;;;;;;;;;;5019325;28;20554;-74
2022/10/26 01:10:23;;;;;;;17.92;6.32;;;;;;;;;;5018070;28;20044;-73
2022/10/26 01:12:50;;;;;;;12.93;6.57;;;;;;;;;;5017378;28;20025;-74
2022/10/26 01:15:15;;;;;;;11.65;5.93;;;;;;;;;;5002508;28;20029;-74
2022/10/26 01:17:47;;;;;;;8.60;6.03;;;;;;;;;;5018517;28;20029;-73
2022/10/26 01:20:21;;;;;;;8.30;5.05;;;;;;;;;;5017794;28;20025;-73
2022/10/26 01:22:51;;;;;;;8.60;6.30;;;;;;;;;;5009250;28;20026;-73
2022/10/26 01:25:19;;;;;;;11.13;6.13;;;;;;;;;;5013518;28;20032;-73
2022/10/26 01:27:49;;;;;;;11.00;5.88;;;;;;;;;;5018901;28;20021;-73
2022/10/26 01:30:17;;;;;;;9.60;5.50;;;;;;;;;;5018900;28;20137;-73
2022/10/26 01:32:42;;;;;;;11.63;6.18;;;;;;;;;;5018899;28;20539;-73
2022/10/26 01:35:17;;;;;;;8.60;5.57;;;;;;;;;;5019710;28;20043;-74
2022/10/26 01:38:09;;;;;;;9.18;5.38;;;;;;;;;;5018245;28;20018;-73
2022/10/26 01:40:45;;;;;;;11.07;5.28;;;;;;;;;;5015994;28;20047;-73
2022/10/26 01:43:12;;;;;;;8.82;5.60;;;;;;;;;;5018149;28;20037;-73
2022/10/26 01:45:40;;;;;;;7.90;5.40;;;;;;;;;;5018538;28;20868;-74
2022/10/26 01:48:06;;;;;;;8.98;5.30;;;;;;;;;;5018731;28;20021;-72
2022/10/26 01:50:33;;;;;;;14.23;5.60;;;;;;;;;;5017858;28;20472;-72
2022/10/26 01:52:58;;;;;;;14.90;5.18;;;;;;;;;;5016280;28;20555;-71
2022/10/26 01:55:41;;;;;;;9.35;5.32;;;;;;;;;;5018383;28;20032;-74
2022/10/26 01:58:09;;;;;;;8.73;5.28;;;;;;;;;;5018752;28;20021;-74
2022/10/26 02:00:37;;;;;;;8.98;5.15;;;;;;;;;;5018317;28;20083;-73
2022/10/26 02:03:25;;;;;;;8.90;4.50;;;;;;;;;;5018725;28;20029;-73
2022/10/26 02:06:03;;;;;;;10.77;5.07;;;;;;;;;;5001635;28;20094;-73
2022/10/26 02:08:37;;;;;;;10.57;5.15;;;;;;;;;;5016819;28;20565;-74
2022/10/26 02:11:21;;;;;;;10.00;4.82;;;;;;;;;;5017950;28;20034;-74
2022/10/26 02:13:52;;;;;;;13.32;5.45;;;;;;;;;;5018385;28;20029;-74
2022/10/26 02:16:40;;;;;;;9.80;4.85;;;;;;;;;;5019951;28;20028;-73
2022/10/26 02:19:29;;;;;;;11.52;5.13;;;;;;;;;;4996056;28;20963;-73
2022/10/26 02:22:15;;;;;;;18.48;4.82;;;;;;;;;;5018397;28;20021;-74
2022/10/26 02:24:41;;;;;;;9.65;5.47;;;;;;;;;;5013820;28;20092;-73
2022/10/26 02:27:09;;;;;;;15.95;5.10;;;;;;;;;;5004355;28;20013;-73
2022/10/26 02:29:35;;;;;;;8.15;5.20;;;;;;;;;;5013297;28;20025;-74
2022/10/26 02:32:01;;;;;;;9.18;5.28;;;;;;;;;;5017810;28;20018;-74
2022/10/26 02:34:27;;;;;;;9.05;4.60;;;;;;;;;;5017604;28;20029;-74
2022/10/26 02:36:54;;;;;;;10.85;5.70;;;;;;;;;;5017139;28;20023;-74
2022/10/26 02:39:20;;;;;;;6.13;3.92;;;;;;;;;;5017009;28;20036;-74
2022/10/26 02:41:46;;;;;;;12.15;5.43;;;;;;;;;;5016713;28;20064;-74
2022/10/26 02:44:11;;;;;;;9.13;4.88;;;;;;;;;;5016277;28;20033;-74
2022/10/26 02:46:37;;;;;;;5.83;4.20;;;;;;;;;;5008864;28;20022;-74
2022/10/26 02:49:02;;;;;;;10.27;4.70;;;;;;;;;;5010944;28;20559;-75
2022/10/26 02:51:54;;;;;;;9.53;4.73;;;;;;;;;;4999695;28;20025;-75
2022/10/26 02:54:22;;;;;;;7.10;4.40;;;;;;;;;;5009972;28;20345;-75
2022/10/26 02:56:50;;;;;;;7.57;4.53;;;;;;;;;;5013695;28;20108;-75
2022/10/26 02:59:18;;;;;;;9.85;5.00;;;;;;;;;;5014084;28;20029;-74
2022/10/26 03:01:44;;;;;;;10.20;4.53;;;;;;;;;;5016098;28;20021;-75
2022/10/26 03:04:09;;;;;;;8.48;4.55;;;;;;;;;;5008028;28;20025;-74
2022/10/26 03:06:34;;;;;;;20.73;5.20;;;;;;;;;;5014189;28;20021;-74
2022/10/26 03:08:59;;;;;;;9.73;4.83;;;;;;;;;;5016754;28;20100;-74
2022/10/26 03:11:25;;;;;;;8.77;5.10;;;;;;;;;;5015938;28;20278;-74
2022/10/26 03:13:50;;;;;;;8.63;4.63;;;;;;;;;;5016665;28;20260;-74
2022/10/26 03:16:15;;;;;;;5.93;3.87;;;;;;;;;;5018458;28;21071;-74
2022/10/26 03:18:40;;;;;;;8.80;4.50;;;;;;;;;;5017046;28;20845;-74
2022/10/26 03:21:05;;;;;;;8.03;4.47;;;;;;;;;;5017114;28;20271;-74
2022/10/26 03:23:31;;;;;;;13.93;4.75;;;;;;;;;;5016122;28;20279;-74
2022/10/26 03:25:56;;;;;;;7.88;4.47;;;;;;;;;;5017221;28;20332;-74
2022/10/26 03:28:22;;;;;;;9.57;4.72;;;;;;;;;;5017279;28;20025;-75
2022/10/26 03:30:47;;;;;;;10.52;5.47;;;;;;;;;;5016741;28;20026;-74
2022/10/26 03:33:12;;;;;;;12.82;4.32;;;;;;;;;;5018265;28;20025;-74
2022/10/26 03:35:38;;;;;;;7.63;4.53;;;;;;;;;;5016578;28;20025;-74
2022/10/26 03:38:03;;;;;;;14.03;4.77;;;;;;;;;;5017504;28;20037;-74
2022/10/26 03:40:28;;;;;;;11.10;4.20;;;;;;;;;;5016162;28;20272;-74
2022/10/26 03:42:53;;;;;;;15.57;4.10;;;;;;;;;;5016475;28;20025;-74
2022/10/26 03:45:18;;;;;;;7.50;3.87;;;;;;;;;;5016476;28;20268;-74
2022/10/26 03:47:44;;;;;;;10.00;4.87;;;;;;;;;;5015752;28;20264;-75
2022/10/26 03:50:11;;;;;;;9.45;3.92;;;;;;;;;;5014138;28;21054;-75
2022/10/26 03:52:36;;;;;;;11.48;4.78;;;;;;;;;;5015307;28;20088;-75
2022/10/26 03:55:01;;;;;;;9.63;4.60;;;;;;;;;;5014052;28;20033;-75
2022/10/26 03:57:26;;;;;;;9.60;4.55;;;;;;;;;;5013511;28;20268;-75
2022/10/26 03:59:52;;;;;;;7.33;3.77;;;;;;;;;;5014407;28;20086;-75
2022/10/26 04:02:17;;;;;;;8.33;4.03;;;;;;;;;;5015966;28;20321;-75
2022/10/26 04:04:42;;;;;;;10.50;4.27;;;;;;;;;;5015601;28;20322;-75
2022/10/26 04:07:07;;;;;;;9.13;4.50;;;;;;;;;;4996506;28;20291;-75
2022/10/26 04:09:32;;;;;;;8.70;4.33;;;;;;;;;;5016526;28;20358;-75
2022/10/26 04:11:57;;;;;;;9.10;4.00;;;;;;;;;;5014920;28;21116;-75
2022/10/26 04:14:23;;;;;;;10.53;4.23;;;;;;;;;;5015942;28;20279;-75
2022/10/26 04:16:48;;;;;;;8.87;4.13;;;;;;;;;;5020417;28;20315;-75
2022/10/26 04:19:13;;;;;;;9.80;4.20;;;;;;;;;;5019581;28;20382;-73
2022/10/26 04:21:38;;;;;;;18.63;4.23;;;;;;;;;;5018804;28;20286;-73
2022/10/26 04:24:04;;;;;;;10.32;3.95;;;;;;;;;;5017940;28;20298;-73
2022/10/26 04:26:29;;;;;;;6.95;3.47;;;;;;;;;;5020250;28;20018;-74
2022/10/26 04:28:54;;;;;;;6.23;3.20;;;;;;;;;;5000553;28;20009;-76
2022/10/26 04:31:20;;;;;;;6.30;3.28;;;;;;;;;;5016540;28;20264;-74
2022/10/26 04:33:45;;;;;;;9.20;3.42;;;;;;;;;;5020471;28;20022;-73
2022/10/26 04:36:10;;;;;;;7.47;3.70;;;;;;;;;;5019507;28;20436;-74
2022/10/26 04:38:35;;;;;;;7.13;3.17;;;;;;;;;;5017470;28;21145;-74
2022/10/26 04:41:00;;;;;;;6.80;2.83;;;;;;;;;;5019282;28;20326;-75
2022/10/26 04:43:26;;;;;;;12.48;3.90;;;;;;;;;;5021127;28;20056;-75
2022/10/26 04:45:55;;;;;;;7.80;3.72;;;;;;;;;;5021208;28;20021;-75
2022/10/26 04:48:20;;;;;;;6.95;3.45;;;;;;;;;;5020998;28;20879;-75
2022/10/26 04:50:46;;;;;;;9.07;2.70;;;;;;;;;;5018965;28;20021;-74
2022/10/26 04:53:11;;;;;;;6.13;3.00;;;;;;;;;;5017691;28;20025;-75
2022/10/26 04:55:36;;;;;;;10.00;3.33;;;;;;;;;;5016010;28;20799;-75
2022/10/26 04:58:02;;;;;;;15.48;3.47;;;;;;;;;;5015147;28;20515;-75
2022/10/26 05:00:29;;;;;;;10.65;3.33;;;;;;;;;;5013838;28;20037;-75
2022/10/26 05:02:58;;;;;;;5.50;3.05;;;;;;;;;;5019231;28;20028;-75
2022/10/26 05:05:23;;;;;;;7.90;3.85;;;;;;;;;;5018801;28;20113;-75
2022/10/26 05:07:55;;;;;;;10.30;3.70;;;;;;;;;;5008158;28;20010;-70
2022/10/26 05:10:20;;;;;;;5.63;3.08;;;;;;;;;;5018513;28;20264;-76
2022/10/26 05:12:49;;;;;;;11.48;3.85;;;;;;;;;;5020354;28;20044;-75
2022/10/26 05:15:14;;;;;;;5.60;2.65;;;;;;;;;;5019632;28;20124;-75
2022/10/26 05:17:40;;;;;;;9.03;2.87;;;;;;;;;;5020482;28;20483;-74
2022/10/26 05:20:09;;;;;;;6.23;2.63;;;;;;;;;;5018407;28;20264;-75
2022/10/26 05:22:34;;;;;;;6.90;2.33;;;;;;;;;;5018526;28;20271;-73
2022/10/26 05:24:59;;;;;;;7.90;2.67;;;;;;;;;;5019085;28;20017;-73
2022/10/26 05:27:24;;;;;;;13.83;2.13;;;;;;;;;;5016879;28;20255;-73
2022/10/26 05:29:49;;;;;;;4.27;2.33;;;;;;;;;;5018097;28;20295;-69
2022/10/26 05:32:15;;;;;;;4.35;2.50;;;;;;;;;;5017169;28;20294;-73
2022/10/26 05:34:40;;;;;;;4.23;1.90;;;;;;;;;;5019592;28;20025;-74
2022/10/26 05:37:05;;;;;;;6.83;2.20;;;;;;;;;;5020086;28;20375;-74
2022/10/26 05:39:30;;;;;;;4.93;2.43;;;;;;;;;;5018865;28;20303;-73
2022/10/26 05:41:56;;;;;;;6.03;2.37;;;;;;;;;;5018460;28;20875;-73
2022/10/26 05:44:21;;;;;;;4.47;1.90;;;;;;;;;;5017489;28;20346;-74
2022/10/26 05:46:46;;;;;;;6.50;2.30;;;;;;;;;;5020310;28;20326;-74
2022/10/26 05:49:11;;;;;;;6.00;2.20;;;;;;;;;;5019586;28;20021;-74
2022/10/26 05:51:38;;;;;;;6.50;1.97;;;;;;;;;;5018274;28;20262;-73
2022/10/26 05:54:03;;;;;;;9.20;2.40;;;;;;;;;;5018663;28;20762;-77
2022/10/26 05:56:39;;;;;;;6.40;2.60;;;;;;;;;;5022337;28;20040;-72
2022/10/26 05:59:09;;;;;;;7.70;2.83;;;;;;;;;;5020050;28;20033;-73
2022/10/26 06:01:40;;;;;;;3.78;1.77;;;;;;;;;;5024633;28;20037;-73
2022/10/26 06:04:13;;;;;;;4.30;1.77;;;;;;;;;;5024647;28;20157;-73
2022/10/26 06:06:40;;;;;;;5.63;2.28;;;;;;;;;;5022966;28;20021;-73
2022/10/26 06:09:08;;;;;;;7.07;2.92;;;;;;;;;;5017373;28;20022;-73
2022/10/26 06:11:33;;;;;;;6.15;2.60;;;;;;;;;;5022796;28;20021;-73
2022/10/26 06:14:00;;;;;;;6.25;2.20;;;;;;;;;;5022971;28;20020;-73
2022/10/26 06:16:35;;;;;;;7.50;2.67;;;;;;;;;;5022449;28;20032;-74
2022/10/26 06:19:09;;;;;;;5.93;2.00;;;;;;;;;;5015746;28;20022;-74
2022/10/26 06:22:00;;;;;;;5.13;2.35;;;;;;;;;;5020923;28;20491;-74
2022/10/26 06:24:45;;;;;;;6.20;2.65;;;;;;;;;;5014507;28;20053;-73
2022/10/26 06:27:28;;;;;;;4.57;2.05;;;;;;;;;;5027477;28;20033;-74
2022/10/26 06:29:59;;;;;;;7.70;2.85;;;;;;;;;;5026997;28;20030;-74
2022/10/26 06:32:25;;;;;;;6.80;2.33;;;;;;;;;;5024094;28;20464;-74
2022/10/26 06:34:52;;;;;;;5.60;2.47;;;;;;;;;;5024532;28;20075;-74
2022/10/26 06:37:17;;;;;;;4.95;2.40;;;;;;;;;;5023769;28;20037;-75
2022/10/26 06:39:46;;;;;;;6.40;2.35;;;;;;;;;;5025440;28;20025;-76
2022/10/26 06:42:12;;;;;;;7.40;1.90;;;;;;;;;;5023239;28;20026;-74
2022/10/26 06:44:37;;;;;;;4.82;1.80;;;;;;;;;;5023766;28;20071;-74
2022/10/26 06:47:14;;;;;;;4.75;2.35;;;;;;;;;;5021190;28;20025;-74
2022/10/26 06:49:42;;;;;;;13.45;2.40;;;;;;;;;;5009204;28;20032;-75
2022/10/26 06:52:17;;;;;;;6.38;2.17;;;;;;;;;;5010579;28;20148;-74
2022/10/26 06:54:53;;;;;;;7.05;2.28;;;;;;;;;;5013734;28;20057;-74
2022/10/26 06:57:22;;;;;;;4.95;2.45;;;;;;;;;;5013877;28;20056;-74
2022/10/26 07:00:08;;;;;;;6.10;2.50;;;;;;;;;;5015476;28;20033;-74
2022/10/26 07:02:33;;;;;;;6.38;1.70;;;;;;;;;;5017554;28;20026;-74
2022/10/26 07:04:58;;;;;;;5.95;2.47;;;;;;;;;;5018550;28;20026;-74
2022/10/26 07:07:25;;;;;;;6.53;2.65;;;;;;;;;;5010351;28;20844;-74
2022/10/26 07:09:51;;;;;;;9.57;2.30;;;;;;;;;;5013412;28;20446;-74
2022/10/26 07:12:16;;;;;;;6.28;2.45;;;;;;;;;;5003474;28;20060;-74
2022/10/26 07:14:41;;;;;;;5.72;2.58;;;;;;;;;;5017118;28;20578;-74
2022/10/26 07:17:07;;;;;;;10.40;2.33;;;;;;;;;;5018020;28;20041;-74
2022/10/26 07:19:32;;;;;;;6.25;2.42;;;;;;;;;;5000152;28;20025;-75
2022/10/26 07:21:59;;;;;;;11.80;2.65;;;;;;;;;;5016276;28;20025;-74
2022/10/26 07:24:24;;;;;;;3.65;2.03;;;;;;;;;;5000879;28;20029;-74
2022/10/26 07:26:49;;;;;;;6.30;2.83;;;;;;;;;;5000468;28;20028;-74
2022/10/26 07:29:17;;;;;;;7.23;2.50;;;;;;;;;;5018502;28;20777;-74
2022/10/26 07:31:42;;;;;;;6.28;2.45;;;;;;;;;;5018110;28;20271;-74
2022/10/26 07:34:07;;;;;;;5.82;2.45;;;;;;;;;;5024591;28;20030;-74
2022/10/26 07:36:35;;;;;;;11.07;2.40;;;;;;;;;;5025807;28;20022;-74
2022/10/26 07:39:00;;;;;;;5.68;2.22;;;;;;;;;;5026133;28;20009;-74
2022/10/26 07:41:25;;;;;;;7.10;2.20;;;;;;;;;;5025414;28;20061;-75
2022/10/26 07:43:51;;;;;;;4.83;2.23;;;;;;;;;;5024253;28;20299;-74
2022/10/26 07:46:17;;;;;;;5.80;1.90;;;;;;;;;;5020786;28;20303;-74
2022/10/26 07:48:42;;;;;;;9.82;2.95;;;;;;;;;;5025371;28;20017;-74
2022/10/26 07:51:07;;;;;;;8.88;2.20;;;;;;;;;;5028022;28;20040;-74
2022/10/26 07:53:33;;;;;;;12.43;2.58;;;;;;;;;;5028958;28;20048;-73
2022/10/26 07:55:58;;;;;;;4.20;1.90;;;;;;;;;;5028854;28;20029;-74
2022/10/26 07:58:25;;;;;;;6.50;2.30;;;;;;;;;;5026645;28;20817;-74
2022/10/26 08:00:53;;;;;;;6.75;2.28;;;;;;;;;;5027529;28;20144;-74
2022/10/26 08:03:19;;;;;;;4.10;1.98;;;;;;;;;;5029565;28;20068;-74
2022/10/26 08:05:45;;;;;;;4.10;1.70;;;;;;;;;;5028359;28;20023;-74
2022/10/26 08:08:10;;;;;;;6.20;1.95;;;;;;;;;;5027482;28;20021;-75
2022/10/26 08:10:36;;;;;;;7.77;2.47;;;;;;;;;;5027715;28;20533;-74
2022/10/26 08:13:01;;;;;;;12.40;2.30;;;;;;;;;;5026939;28;20617;-74
2022/10/26 08:15:26;;;;;;;4.70;2.00;;;;;;;;;;5026878;28;20320;-74
2022/10/26 08:17:51;;;;;;;4.20;1.90;;;;;;;;;;5027365;28;20276;-75
2022/10/26 08:20:17;;;;;;;4.83;1.90;;;;;;;;;;5027955;28;20264;-74
2022/10/26 08:22:42;;;;;;;9.00;2.30;;;;;;;;;;5026300;28;20272;-74
2022/10/26 08:25:07;;;;;;;9.95;2.65;;;;;;;;;;5025871;28;20260;-73
2022/10/26 08:27:33;;;;;;;8.35;2.17;;;;;;;;;;5027813;28;20096;-76
2022/10/26 08:29:58;;;;;;;8.38;2.40;;;;;;;;;;5026426;28;20026;-74
2022/10/26 08:32:23;;;;;;;3.97;1.97;;;;;;;;;;5023982;28;20022;-74
2022/10/26 08:34:48;;;;;;;7.57;1.92;;;;;;;;;;5025472;28;20264;-74
2022/10/26 08:37:13;;;;;;;8.57;2.58;;;;;;;;;;5025253;28;20029;-73
2022/10/26 08:39:39;;;;;;;4.80;2.63;;;;;;;;;;5025312;28;20032;-72
2022/10/26 08:42:17;;;;;;;5.53;2.20;;;;;;;;;;5024471;28;20359;-74
2022/10/26 08:44:45;;;;;;;6.22;2.17;;;;;;;;;;5024794;28;20684;-74
2022/10/26 08:47:18;;;;;;;5.30;2.35;;;;;;;;;;5022294;28;20478;-73
2022/10/26 08:50:00;;;;;;;5.22;2.15;;;;;;;;;;5024195;28;20026;-73
2022/10/26 08:52:36;;;;;;;4.93;2.85;;;;;;;;;;5029232;28;20022;-74
2022/10/26 08:55:02;;;;;;;5.63;2.90;;;;;;;;;;5030291;28;20029;-74
2022/10/26 08:57:35;;;;;;;6.07;2.85;;;;;;;;;;5027275;28;20021;-76
2022/10/26 09:00:06;;;;;;;15.18;2.90;;;;;;;;;;5028118;28;20026;-73
2022/10/26 09:02:31;;;;;;;6.25;2.22;;;;;;;;;;5027650;28;20025;-74
2022/10/26 09:05:00;;;;;;;5.07;2.30;;;;;;;;;;5024969;28;20021;-75
2022/10/26 09:07:28;;;;;;;10.35;2.90;;;;;;;;;;5020693;28;20026;-74
2022/10/26 09:10:09;;;;;;;7.65;2.42;;;;;;;;;;5014283;28;20094;-73
2022/10/26 09:12:35;;;;;;;5.93;2.45;;;;;;;;;;5017734;28;20117;-74
2022/10/26 09:15:18;;;;;;;9.43;2.97;;;;;;;;;;5010777;28;20018;-72
2022/10/26 09:17:46;;;;;;;10.57;2.92;;;;;;;;;;5021789;28;20474;-71
2022/10/26 09:20:11;;;;;;;6.28;2.60;;;;;;;;;;5021513;28;20017;-73
2022/10/26 09:22:40;;;;;;;16.23;2.80;;;;;;;;;;4997189;28;20016;-75
2022/10/26 09:25:16;;;;;;;6.13;2.22;;;;;;;;;;5004391;28;20029;-74
2022/10/26 09:27:43;;;;;;;8.52;2.88;;;;;;;;;;5017614;28;20010;-74
2022/10/26 09:30:13;;;;;;;18.88;2.60;;;;;;;;;;5021835;28;20133;-73
2022/10/26 09:32:42;;;;;;;10.65;2.55;;;;;;;;;;5016380;28;20014;-75
2022/10/26 09:35:13;;;;;;;5.90;2.53;;;;;;;;;;5016017;28;20021;-73
2022/10/26 09:37:46;;;;;;;6.50;2.80;;;;;;;;;;5018957;28;20025;-73
2022/10/26 09:40:11;;;;;;;3.45;1.90;;;;;;;;;;5018136;28;20029;-72
2022/10/26 09:42:42;;;;;;;5.35;2.50;;;;;;;;;;5020317;28;20063;-74
2022/10/26 09:45:21;;;;;;;10.23;1.98;;;;;;;;;;5022894;28;20029;-74
2022/10/26 09:47:51;;;;;;;8.80;2.55;;;;;;;;;;4991416;28;20852;-75
2022/10/26 09:50:23;;;;;;;7.60;2.42;;;;;;;;;;4989608;28;20041;-72
2022/10/26 09:52:48;;;;;;;5.55;2.25;;;;;;;;;;4992268;28;20010;-74
2022/10/26 09:55:14;;;;;;;6.70;2.10;;;;;;;;;;4990963;28;20022;-74
2022/10/26 09:57:41;;;;;;;10.40;2.75;;;;;;;;;;4993299;28;20264;-74
2022/10/26 10:00:11;;;;;;;5.38;1.98;;;;;;;;;;4991220;28;20129;-70
2022/10/26 10:02:37;;;;;;;6.97;2.40;;;;;;;;;;4992141;28;20021;-72
2022/10/26 10:05:19;;;;;;;11.50;2.28;;;;;;;;;;4996729;28;20145;-75
2022/10/26 10:07:44;;;;;;;5.18;2.30;;;;;;;;;;5020544;28;20014;-71
2022/10/26 10:10:18;;;;;;;5.05;2.15;;;;;;;;;;5032060;28;20010;-75
2022/10/26 10:12:44;;;;;;;4.57;2.17;;;;;;;;;;5030740;28;20013;-75
2022/10/26 10:15:20;;;;;;;5.30;2.08;;;;;;;;;;5031964;28;20021;-74
2022/10/26 10:17:54;;;;;;;4.60;1.70;;;;;;;;;;5032366;28;20092;-74
2022/10/26 10:20:32;;;;;;;4.35;1.80;;;;;;;;;;5031752;28;20518;-77
2022/10/26 10:22:58;;;;;;;5.00;1.73;;;;;;;;;;5032252;28;20017;-72
2022/10/26 10:25:32;;;;;;;10.80;1.95;;;;;;;;;;5030797;28;20100;-73
2022/10/26 10:27:57;;;;;;;10.05;1.90;;;;;;;;;;5033217;28;20009;-73
2022/10/26 10:30:26;;;;;;;4.17;2.00;;;;;;;;;;5035901;28;20523;-72
2022/10/26 10:33:10;;;;;;;5.95;1.98;;;;;;;;;;5034842;28;20264;-72
2022/10/26 10:35:37;;;;;;;4.33;1.77;;;;;;;;;;5032279;28;20021;-73
2022/10/26 10:38:02;;;;;;;4.00;1.80;;;;;;;;;;5031507;28;20296;-71
2022/10/26 10:40:30;;;;;;;5.68;1.80;;;;;;;;;;5032001;28;20115;-78
2022/10/26 10:43:10;;;;;;;6.05;2.33;;;;;;;;;;5030214;28;20141;-74
2022/10/26 10:45:36;;;;;;;4.65;1.48;;;;;;;;;;5023971;28;20029;-71
2022/10/26 10:48:01;;;;;;;6.70;1.88;;;;;;;;;;5030488;28;20028;-72
2022/10/26 10:50:27;;;;;;;4.23;1.93;;;;;;;;;;5014803;28;20018;-74
2022/10/26 10:52:52;;;;;;;13.13;1.95;;;;;;;;;;5032027;28;20025;-73
2022/10/26 10:55:21;;;;;;;6.65;2.20;;;;;;;;;;5030024;28;20370;-72
2022/10/26 10:58:05;;;;;;;5.22;2.17;;;;;;;;;;5031419;28;20491;-70
2022/10/26 11:00:34;;;;;;;5.18;1.45;;;;;;;;;;5029103;28;20099;-74
2022/10/26 11:03:18;;;;;;;4.30;1.50;;;;;;;;;;5030082;28;20066;-72
2022/10/26 11:05:46;;;;;;;4.15;1.98;;;;;;;;;;5015083;28;20422;-70
2022/10/26 11:08:16;;;;;;;3.33;1.60;;;;;;;;;;5022377;28;20025;-71
2022/10/26 11:10:44;;;;;;;3.95;1.92;;;;;;;;;;5031911;28;20427;-71
2022/10/26 11:13:18;;;;;;;3.53;1.90;;;;;;;;;;5021718;28;20380;-71
2022/10/26 11:15:44;;;;;;;3.80;1.70;;;;;;;;;;5031295;28;20028;-71
2022/10/26 11:18:18;;;;;;;10.43;1.90;;;;;;;;;;5030015;28;20466;-71
2022/10/26 11:20:48;;;;;;;7.75;1.70;;;;;;;;;;5029407;28;20013;-71
2022/10/26 11:23:27;;;;;;;7.28;1.98;;;;;;;;;;5031559;28;20022;-72
2022/10/26 11:25:55;;;;;;;9.15;2.17;;;;;;;;;;5032284;28;20062;-71
2022/10/26 11:28:23;;;;;;;7.85;2.15;;;;;;;;;;5035192;28;20021;-72
2022/10/26 11:30:51;;;;;;;7.10;1.80;;;;;;;;;;5035728;28;20463;-73
2022/10/26 11:33:25;;;;;;;5.25;1.88;;;;;;;;;;5035516;28;20033;-71
2022/10/26 11:35:59;;;;;;;8.30;2.03;;;;;;;;;;5018080;28;20455;-72
2022/10/26 11:38:27;;;;;;;4.78;1.58;;;;;;;;;;5035733;28;20155;-73
2022/10/26 11:41:03;;;;;;;6.88;1.77;;;;;;;;;;5036584;28;20777;-72
2022/10/26 11:43:38;;;;;;;5.28;1.95;;;;;;;;;;5036020;28;20416;-72
2022/10/26 11:46:06;;;;;;;9.90;1.73;;;;;;;;;;5033821;28;20013;-73
2022/10/26 11:48:39;;;;;;;6.43;1.58;;;;;;;;;;5033805;28;20023;-72
2022/10/26 11:51:10;;;;;;;6.45;1.65;;;;;;;;;;5036004;28;20028;-73
2022/10/26 11:53:38;;;;;;;7.55;1.65;;;;;;;;;;5034904;28;20590;-73
2022/10/26 11:56:07;;;;;;;3.35;1.75;;;;;;;;;;5033914;28;20018;-71
2022/10/26 11:58:32;;;;;;;4.93;2.00;;;;;;;;;;5035204;28;20032;-73
2022/10/26 12:01:02;;;;;;;4.60;1.70;;;;;;;;;;5034541;28;20010;-72
2022/10/26 12:03:31;;;;;;;4.18;1.58;;;;;;;;;;5034813;28;20026;-73
2022/10/26 12:05:56;;;;;;;15.80;1.95;;;;;;;;;;5034660;28;20013;-73
2022/10/26 12:08:41;;;;;;;4.77;1.67;;;;;;;;;;5035154;28;20032;-73
2022/10/26 12:11:06;;;;;;;;;;;;;;;;;;5018879;28;20264;-73
2022/10/26 12:13:37;;;;;;;2.80;1.38;;;;;;;;;;5026847;28;19905;-72
2022/10/26 12:16:05;;;;;;;3.67;1.42;;;;;;;;;;5035049;28;20025;-74
2022/10/26 12:18:30;;;;;;;3.70;1.67;;;;;;;;;;5034719;28;20051;-74
2022/10/26 12:21:03;;;;;;;5.67;1.30;;;;;;;;;;5036093;28;20539;-74
2022/10/26 12:23:30;;;;;;;4.88;1.67;;;;;;;;;;5023553;28;20041;-73
2022/10/26 12:26:16;;;;;;;4.32;1.52;;;;;;;;;;4995376;28;20025;-72
2022/10/26 12:28:41;;;;;;;6.43;1.50;;;;;;;;;;4998988;28;20028;-71
2022/10/26 12:31:25;;;;;;;2.55;1.00;;;;;;;;;;4997915;28;20018;-74
2022/10/26 12:33:50;;;;;;;2.75;1.35;;;;;;;;;;4979600;28;20777;-72
2022/10/26 12:36:34;;;;;;;3.35;1.65;;;;;;;;;;4997874;28;20124;-72
2022/10/26 12:39:00;;;;;;;3.42;1.17;;;;;;;;;;4993960;28;20085;-73
2022/10/26 12:41:26;;;;;;;2.85;1.00;;;;;;;;;;4998111;28;20056;-73
2022/10/26 12:43:54;;;;;;;7.03;1.30;;;;;;;;;;4994082;28;20132;-72
2022/10/26 12:46:26;;;;;;;9.45;1.42;;;;;;;;;;4995328;28;20017;-74
2022/10/26 12:48:52;;;;;;;2.58;1.23;;;;;;;;;;4996241;28;20018;-72
2022/10/26 12:51:18;;;;;;;7.88;1.42;;;;;;;;;;4994739;28;20044;-74
2022/10/26 12:53:43;;;;;;;4.70;1.27;;;;;;;;;;4995444;28;20017;-72
2022/10/26 12:56:11;;;;;;;6.95;1.45;;;;;;;;;;4996747;28;20395;-72
2022/10/26 12:58:48;;;;;;;3.28;1.30;;;;;;;;;;4975165;28;20080;-74
2022/10/26 13:01:35;;;;;;;7.68;1.60;;;;;;;;;;4994880;28;20080;-73
2022/10/26 13:04:09;;;;;;;3.55;1.13;;;;;;;;;;5019741;28;20097;-75
2022/10/26 13:06:53;;;;;;;5.32;1.17;;;;;;;;;;5028896;28;20021;-72
2022/10/26 13:09:22;;;;;;;2.57;1.07;;;;;;;;;;5030082;28;20018;-73
2022/10/26 13:11:50;;;;;;;2.95;1.63;;;;;;;;;;5031354;28;20076;-72
2022/10/26 13:14:28;;;;;;;4.55;1.40;;;;;;;;;;5020157;28;20030;-73
2022/10/26 13:16:53;;;;;;;3.53;1.27;;;;;;;;;;5029143;28;20415;-72
2022/10/26 13:19:23;;;;;;;4.80;1.52;;;;;;;;;;5031927;28;20022;-72
2022/10/26 13:21:49;;;;;;;2.15;0.88;;;;;;;;;;5032090;28;20037;-71
2022/10/26 13:24:14;;;;;;;3.25;1.30;;;;;;;;;;5029651;28;20029;-72
2022/10/26 13:26:58;;;;;;;7.47;1.48;;;;;;;;;;5031211;28;20139;-72
2022/10/26 13:29:28;;;;;;;4.30;1.40;;;;;;;;;;5030174;28;20115;-68
2022/10/26 13:31:54;;;;;;;4.07;1.20;;;;;;;;;;5030837;28;20068;-71
2022/10/26 13:34:20;;;;;;;3.55;1.15;;;;;;;;;;5030874;28;20430;-74
2022/10/26 13:37:00;;;;;;;2.45;0.90;;;;;;;;;;5031569;28;20021;-71
2022/10/26 13:39:30;;;;;;;8.73;1.52;;;;;;;;;;5032247;28;20028;-72
2022/10/26 13:41:57;;;;;;;2.47;0.98;;;;;;;;;;5032572;28;20014;-76
2022/10/26 13:44:27;;;;;;;4.68;1.30;;;;;;;;;;5033313;28;20017;-76
2022/10/26 13:46:55;;;;;;;9.45;1.50;;;;;;;;;;5032262;28;20018;-72
2022/10/26 13:49:23;;;;;;;4.55;1.40;;;;;;;;;;5028685;28;20040;-74
2022/10/26 13:51:50;;;;;;;4.32;1.58;;;;;;;;;;5032884;28;20418;-69
2022/10/26 13:54:27;;;;;;;4.63;1.65;;;;;;;;;;5032641;28;20021;-72
2022/10/26 13:56:52;;;;;;;4.93;1.50;;;;;;;;;;5032312;28;20123;-70
2022/10/26 13:59:17;;;;;;;4.50;1.50;;;;;;;;;;5040110;28;20025;-71
2022/10/26 14:01:43;;;;;;;4.90;1.73;;;;;;;;;;5032169;28;20033;-70
2022/10/26 14:04:15;;;;;;;3.90;1.20;;;;;;;;;;5032077;28;20287;-78
2022/10/26 14:06:42;;;;;;;3.70;1.52;;;;;;;;;;5011788;28;20268;-72
2022/10/26 14:09:12;;;;;;;3.38;1.20;;;;;;;;;;5030215;28;20013;-73
2022/10/26 14:11:45;;;;;;;2.65;1.20;;;;;;;;;;5031570;28;20075;-75
2022/10/26 14:14:17;;;;;;;7.47;1.60;;;;;;;;;;5024692;28;20380;-74
2022/10/26 14:16:45;;;;;;;6.38;1.88;;;;;;;;;;5025209;28;20030;-74
2022/10/26 14:19:21;;;;;;;3.58;1.20;;;;;;;;;;5031008;28;20025;-74
2022/10/26 14:21:48;;;;;;;6.25;1.52;;;;;;;;;;5031401;28;20041;-74
2022/10/26 14:24:21;;;;;;;3.65;1.58;;;;;;;;;;5031190;28;20052;-72
2022/10/26 14:26:47;;;;;;;3.72;1.67;;;;;;;;;;5025542;28;20036;-74
2022/10/26 14:29:17;;;;;;;9.13;1.73;;;;;;;;;;5034277;28;20021;-73
2022/10/26 14:31:42;;;;;;;4.18;1.75;;;;;;;;;;5032119;28;20013;-72
2022/10/26 14:34:09;;;;;;;4.83;1.97;;;;;;;;;;5013993;28;20017;-73
2022/10/26 14:36:37;;;;;;;3.65;1.98;;;;;;;;;;5031748;28;20272;-73
2022/10/26 14:39:05;;;;;;;5.32;1.67;;;;;;;;;;5032930;28;20415;-72
2022/10/26 14:41:33;;;;;;;2.90;1.40;;;;;;;;;;5029725;28;20464;-72
2022/10/26 14:43:59;;;;;;;4.40;1.92;;;;;;;;;;5032763;28;20103;-72
2022/10/26 14:46:25;;;;;;;4.18;1.40;;;;;;;;;;5032699;28;20061;-73
2022/10/26 14:48:55;;;;;;;3.97;1.58;;;;;;;;;;5032346;28;20018;-73
2022/10/26 14:51:24;;;;;;;2.85;1.40;;;;;;;;;;5014853;28;20013;-70